createdAt,value
2022-08-01T00:01:04.954Z,3.4
2022-08-01T00:02:21.250Z,3.5
2022-08-01T00:03:37.542Z,3.5
2022-08-01T00:04:53.847Z,3.2
2022-08-01T00:06:10.130Z,3.5
2022-08-01T00:07:26.433Z,3.5
2022-08-01T00:08:42.709Z,3.3
2022-08-01T00:09:59.012Z,3.4
2022-08-01T00:11:15.304Z,3.4
2022-08-01T00:12:31.605Z,3.2
2022-08-01T00:13:47.891Z,3.1
2022-08-01T00:15:03.197Z,3.5
2022-08-01T00:16:19.490Z,3.6
2022-08-01T00:17:35.788Z,3.5
2022-08-01T00:18:52.082Z,3.3
2022-08-01T00:20:08.388Z,3.8
2022-08-01T00:21:24.671Z,3.6
2022-08-01T00:22:40.958Z,3.5
2022-08-01T00:23:57.254Z,3.7
2022-08-01T00:25:13.554Z,3.6
2022-08-01T00:26:29.842Z,3.5
2022-08-01T00:27:46.142Z,3.2
2022-08-01T00:29:02.446Z,3.2
2022-08-01T00:30:18.737Z,3.6
2022-08-01T00:31:34.043Z,3.7
2022-08-01T00:32:50.336Z,3.7
2022-08-01T00:34:06.000Z,3.4
2022-08-01T00:35:22.917Z,3.4
2022-08-01T00:36:39.217Z,3.5
2022-08-01T00:37:55.503Z,3.7
2022-08-01T00:39:11.804Z,3.9
2022-08-01T00:40:28.090Z,3.7
2022-08-01T00:41:44.395Z,3.8
2022-08-01T00:43:00.686Z,4.1
2022-08-01T00:44:16.976Z,3.8
2022-08-01T00:45:33.262Z,3.9
2022-08-01T00:46:49.567Z,3.8
2022-08-01T00:48:04.867Z,3.8
2022-08-01T00:49:21.162Z,3.6
2022-08-01T00:50:37.457Z,3.9
2022-08-01T00:51:53.758Z,3.6
2022-08-01T00:53:10.057Z,3.6
2022-08-01T00:54:26.344Z,3.7
2022-08-01T00:55:42.646Z,3.8
2022-08-01T00:56:58.923Z,3.6
2022-08-01T00:58:15.225Z,3.7
2022-08-01T00:59:31.514Z,3.8
2022-08-01T01:00:47.820Z,3.8
2022-08-01T01:02:04.107Z,3.7
2022-08-01T01:03:20.397Z,3.7
2022-08-01T01:04:35.707Z,3.9
2022-08-01T01:05:52.002Z,3.8
2022-08-01T01:07:08.289Z,3.8
2022-08-01T01:08:24.586Z,3.9
2022-08-01T01:09:40.882Z,3.6
2022-08-01T01:10:57.172Z,3.8
2022-08-01T01:12:13.466Z,3.8
2022-08-01T01:13:29.762Z,3.6
2022-08-01T01:14:46.053Z,3.8
2022-08-01T01:16:02.352Z,3.8
2022-08-01T01:17:18.652Z,3.7
2022-08-01T01:18:34.944Z,3.8
2022-08-01T01:19:51.228Z,3.6
2022-08-01T01:21:06.540Z,3.6
2022-08-01T01:22:22.839Z,3.6
2022-08-01T01:23:39.137Z,3.8
2022-08-01T01:24:55.433Z,3.4
2022-08-01T01:26:11.711Z,3.9
2022-08-01T01:27:28.012Z,3.7
2022-08-01T01:28:44.299Z,3.6
2022-08-01T01:30:00.598Z,3.6
2022-08-01T01:31:16.904Z,3.6
2022-08-01T01:32:33.195Z,3.9
2022-08-01T01:33:49.474Z,3.9
2022-08-01T01:35:05.777Z,3.6
2022-08-01T01:36:22.073Z,4
2022-08-01T01:37:37.370Z,3.7
2022-08-01T01:38:53.673Z,3.8
2022-08-01T01:40:09.961Z,3.5
2022-08-01T01:41:26.262Z,3.5
2022-08-01T01:42:42.546Z,3.7
2022-08-01T01:43:58.846Z,3.3
2022-08-01T01:45:15.139Z,3.4
2022-08-01T01:46:31.428Z,3.4
2022-08-01T01:47:47.721Z,3.6
2022-08-01T01:49:04.022Z,3.4
2022-08-01T01:50:20.327Z,3.5
2022-08-01T01:51:36.618Z,3.3
2022-08-01T01:52:52.896Z,3.5
2022-08-01T01:54:08.206Z,3.6
2022-08-01T01:55:24.498Z,3.6
2022-08-01T01:56:40.809Z,3.3
2022-08-01T01:57:57.094Z,3.6
2022-08-01T01:59:13.389Z,3.7
2022-08-01T02:00:29.675Z,3.6
2022-08-01T02:01:45.985Z,3.5
2022-08-01T02:03:02.276Z,3.4
2022-08-01T02:04:18.554Z,3.6
2022-08-01T02:05:34.868Z,3.5
2022-08-01T02:06:51.000Z,3.6
2022-08-01T02:08:07.442Z,3.6
2022-08-01T02:09:23.740Z,3.7
2022-08-01T02:10:39.057Z,3.5
2022-08-01T02:11:55.344Z,3.6
2022-08-01T02:13:11.636Z,3.5
2022-08-01T02:14:27.926Z,3.9
2022-08-01T02:15:44.235Z,3.7
2022-08-01T02:17:00.515Z,3.6
2022-08-01T02:18:16.821Z,3.5
2022-08-01T02:19:33.101Z,3.8
2022-08-01T02:20:49.389Z,3.6
2022-08-01T02:22:05.698Z,3.6
2022-08-01T02:23:21.984Z,3.7
2022-08-01T02:24:38.282Z,3.4
2022-08-01T02:25:54.564Z,3.7
2022-08-01T02:27:09.876Z,3.5
2022-08-01T02:28:26.174Z,3.7
2022-08-01T02:29:42.477Z,3.5
2022-08-01T02:30:58.764Z,3.8
2022-08-01T02:32:15.068Z,4
2022-08-01T02:33:31.363Z,3.6
2022-08-01T02:34:47.642Z,3.8
2022-08-01T02:36:03.948Z,3.5
2022-08-01T02:37:20.227Z,3.8
2022-08-01T02:38:36.528Z,3.5
2022-08-01T02:39:52.824Z,3.8
2022-08-01T02:41:09.107Z,3.8
2022-08-01T02:42:25.407Z,4
2022-08-01T02:43:40.725Z,3.9
2022-08-01T02:44:57.008Z,3.9
2022-08-01T02:46:13.297Z,3.6
2022-08-01T02:47:29.603Z,3.8
2022-08-01T02:48:45.897Z,3.9
2022-08-01T02:50:02.189Z,4
2022-08-01T02:51:18.479Z,3.7
2022-08-01T02:52:34.780Z,3.7
2022-08-01T02:53:51.068Z,3.9
2022-08-01T02:55:07.360Z,3.8
2022-08-01T02:56:23.658Z,3.9
2022-08-01T02:57:39.942Z,3.8
2022-08-01T02:58:56.240Z,4
2022-08-01T03:00:11.556Z,4
2022-08-01T03:01:27.841Z,3.8
2022-08-01T03:02:44.086Z,3.6
2022-08-01T03:03:59.411Z,4.1
2022-08-01T03:05:15.687Z,3.8
2022-08-01T03:06:31.949Z,4
2022-08-01T03:07:48.186Z,3.9
2022-08-01T03:09:04.436Z,4.2
2022-08-01T03:10:20.656Z,3.7
2022-08-01T03:11:36.912Z,4.1
2022-08-01T03:12:53.164Z,4
2022-08-01T03:14:09.390Z,4.1
2022-08-01T03:15:25.653Z,3.8
2022-08-01T03:16:41.881Z,3.8
2022-08-01T03:17:58.127Z,3.8
2022-08-01T03:19:14.375Z,3.6
2022-08-01T03:20:29.631Z,4.1
2022-08-01T03:21:45.865Z,4.1
2022-08-01T03:23:02.111Z,3.7
2022-08-01T03:24:18.345Z,4.2
2022-08-01T03:25:34.574Z,3.8
2022-08-01T03:26:50.831Z,3.9
2022-08-01T03:28:07.069Z,3.7
2022-08-01T03:29:23.300Z,3.6
2022-08-01T03:30:39.548Z,3.6
2022-08-01T03:31:55.776Z,3.8
2022-08-01T03:33:12.018Z,3.6
2022-08-01T03:34:28.264Z,3.5
2022-08-01T03:35:44.492Z,3.3
2022-08-01T03:36:59.760Z,3.3
2022-08-01T03:38:16.002Z,3.5
2022-08-01T03:39:32.242Z,3.4
2022-08-01T03:40:48.478Z,3.3
2022-08-01T03:42:04.723Z,3.4
2022-08-01T03:43:20.957Z,3.3
2022-08-01T03:44:37.200Z,3.1
2022-08-01T03:45:53.438Z,3.1
2022-08-01T03:47:09.678Z,3.1
2022-08-01T03:48:25.912Z,2.9
2022-08-01T03:49:42.155Z,2.9
2022-08-01T03:52:14.624Z,2.8
2022-08-01T03:53:29.883Z,3
2022-08-01T03:54:46.124Z,2.7
2022-08-01T03:56:02.366Z,2.8
2022-08-01T03:57:18.600Z,2.8
2022-08-01T03:58:34.853Z,2.8
2022-08-01T03:59:51.098Z,2.8
2022-08-01T04:01:07.325Z,2.7
2022-08-01T04:02:23.572Z,2.6
2022-08-01T04:03:39.817Z,2.7
2022-08-01T04:04:56.056Z,2.7
2022-08-01T04:06:12.296Z,2.8
2022-08-01T04:07:28.521Z,2.6
2022-08-01T04:08:44.765Z,2.5
2022-08-01T04:10:00.030Z,2.9
2022-08-01T04:11:16.258Z,2.7
2022-08-01T04:12:32.511Z,2.6
2022-08-01T04:13:48.744Z,2.6
2022-08-01T04:15:04.972Z,2.6
2022-08-01T04:16:21.219Z,2.6
2022-08-01T04:17:37.468Z,2.5
2022-08-01T04:18:53.696Z,2.5
2022-08-01T04:20:09.950Z,2.6
2022-08-01T04:21:26.175Z,2.7
2022-08-01T04:22:42.427Z,2.9
2022-08-01T04:23:58.658Z,2.7
2022-08-01T04:25:14.906Z,2.7
2022-08-01T04:26:30.166Z,2.7
2022-08-01T04:27:46.400Z,2.8
2022-08-01T04:29:02.626Z,2.9
2022-08-01T04:30:18.869Z,2.8
2022-08-01T04:31:35.124Z,2.8
2022-08-01T04:32:51.346Z,2.8
2022-08-01T04:34:07.591Z,3
2022-08-01T04:35:23.829Z,2.7
2022-08-01T04:36:40.074Z,2.9
2022-08-01T04:37:56.308Z,2.9
2022-08-01T04:39:12.558Z,3.2
2022-08-01T04:40:28.797Z,2.8
2022-08-01T04:41:45.045Z,2.9
2022-08-01T04:43:00.290Z,3
2022-08-01T04:44:16.523Z,2.6
2022-08-01T04:45:32.762Z,3
2022-08-01T04:46:49.017Z,3
2022-08-01T04:48:05.247Z,3.1
2022-08-01T04:49:21.485Z,2.8
2022-08-01T04:50:37.733Z,2.6
2022-08-01T04:51:53.960Z,3
2022-08-01T04:53:10.206Z,2.8
2022-08-01T04:54:26.453Z,3.1
2022-08-01T04:55:42.688Z,2.8
2022-08-01T04:56:58.920Z,3
2022-08-01T04:59:31.404Z,3.1
2022-08-01T05:00:46.665Z,2.9
2022-08-01T05:02:02.895Z,2.7
2022-08-01T05:03:19.144Z,2.7
2022-08-01T05:04:35.385Z,2.8
2022-08-01T05:05:51.628Z,2.9
2022-08-01T05:07:07.872Z,2.9
2022-08-01T05:08:24.095Z,2.7
2022-08-01T05:09:40.342Z,2.9
2022-08-01T05:10:56.577Z,2.8
2022-08-01T05:12:12.819Z,2.6
2022-08-01T05:13:29.060Z,2.6
2022-08-01T05:14:45.298Z,2.5
2022-08-01T05:16:01.551Z,2.6
2022-08-01T05:17:16.802Z,2.8
2022-08-01T05:18:33.041Z,2.4
2022-08-01T05:19:49.281Z,2.6
2022-08-01T05:21:05.521Z,2.7
2022-08-01T05:22:21.756Z,2.5
2022-08-01T05:23:37.987Z,2.5
2022-08-01T05:24:54.234Z,2.6
2022-08-01T05:26:10.471Z,2.6
2022-08-01T05:27:26.707Z,2.4
2022-08-01T05:28:42.955Z,2.3
2022-08-01T05:29:59.184Z,2.7
2022-08-01T05:31:15.424Z,2.9
2022-08-01T05:32:31.674Z,2.6
2022-08-01T05:33:46.934Z,2.7
2022-08-01T05:35:03.174Z,2.5
2022-08-01T05:36:19.412Z,2.7
2022-08-01T05:37:35.654Z,2.4
2022-08-01T05:38:51.000Z,2.6
2022-08-01T05:40:08.138Z,2.5
2022-08-01T05:41:24.376Z,2.7
2022-08-01T05:42:40.617Z,2.6
2022-08-01T05:43:56.850Z,2.6
2022-08-01T05:45:13.095Z,2.6
2022-08-01T05:46:29.331Z,2.7
2022-08-01T05:47:45.572Z,2.5
2022-08-01T05:49:01.808Z,2.5
2022-08-01T05:50:17.068Z,2.7
2022-08-01T05:51:33.308Z,2.5
2022-08-01T05:52:49.546Z,2.5
2022-08-01T05:54:05.792Z,2.6
2022-08-01T05:55:22.019Z,2.8
2022-08-01T05:56:38.254Z,3
2022-08-01T05:57:54.509Z,3
2022-08-01T05:59:10.736Z,3.2
2022-08-01T06:00:26.990Z,3.3
2022-08-01T06:01:43.218Z,3.2
2022-08-01T06:02:59.460Z,3.2
2022-08-01T06:04:15.695Z,3.3
2022-08-01T06:05:31.951Z,3
2022-08-01T06:06:47.204Z,3.1
2022-08-01T06:08:03.431Z,2.9
2022-08-01T06:09:19.673Z,2.8
2022-08-01T06:10:35.909Z,2.8
2022-08-01T06:11:52.159Z,2.7
2022-08-01T06:13:08.393Z,2.7
2022-08-01T06:14:24.631Z,2.8
2022-08-01T06:15:40.871Z,2.7
2022-08-01T06:16:57.113Z,2.6
2022-08-01T06:18:13.358Z,2.7
2022-08-01T06:19:29.602Z,2.8
2022-08-01T06:20:45.826Z,2.6
2022-08-01T06:22:02.078Z,2.7
2022-08-01T06:23:17.336Z,2.6
2022-08-01T06:24:33.567Z,2.6
2022-08-01T06:25:49.821Z,2.7
2022-08-01T06:27:06.056Z,2.5
2022-08-01T06:28:22.293Z,2.5
2022-08-01T06:29:38.537Z,2.5
2022-08-01T06:30:54.764Z,2.5
2022-08-01T06:32:11.007Z,2.8
2022-08-01T06:33:27.251Z,2.7
2022-08-01T06:34:43.487Z,2.7
2022-08-01T06:35:59.722Z,2.8
2022-08-01T06:37:15.979Z,2.9
2022-08-01T06:38:32.220Z,2.8
2022-08-01T06:39:47.464Z,3.2
2022-08-01T06:41:03.701Z,2.9
2022-08-01T06:42:19.944Z,2.8
2022-08-01T06:43:36.187Z,3.3
2022-08-01T06:44:52.420Z,3.7
2022-08-01T06:46:08.661Z,3.6
2022-08-01T06:47:24.898Z,3.9
2022-08-01T06:48:41.157Z,3.7
2022-08-01T06:49:57.385Z,4.1
2022-08-01T06:51:13.000Z,4
2022-08-01T06:52:29.865Z,4.3
2022-08-01T06:53:46.102Z,4.5
2022-08-01T06:55:02.354Z,4.5
2022-08-01T06:56:17.608Z,4.1
2022-08-01T06:57:33.848Z,4.2
2022-08-01T06:58:50.086Z,3.4
2022-08-01T07:00:06.329Z,2.9
2022-08-01T07:01:22.566Z,2.9
2022-08-01T07:02:38.793Z,2.7
2022-08-01T07:03:55.038Z,2.7
2022-08-01T07:05:11.273Z,2.7
2022-08-01T07:07:43.759Z,2.6
2022-08-01T07:09:00.005Z,2.6
2022-08-01T07:10:16.235Z,2.6
2022-08-01T07:11:32.476Z,2.8
2022-08-01T07:12:47.730Z,2.8
2022-08-01T07:14:03.979Z,2.7
2022-08-01T07:15:20.209Z,3.1
2022-08-01T07:16:36.467Z,2.7
2022-08-01T07:17:52.699Z,2.9
2022-08-01T07:19:07.962Z,3
2022-08-01T07:20:24.188Z,3
2022-08-01T07:21:40.442Z,2.9
2022-08-01T07:22:56.683Z,3.1
2022-08-01T07:24:12.918Z,3
2022-08-01T07:25:29.166Z,2.9
2022-08-01T07:26:45.398Z,3
2022-08-01T07:28:01.644Z,2.7
2022-08-01T07:29:17.871Z,2.6
2022-08-01T07:30:34.119Z,2.9
2022-08-01T07:31:50.347Z,2.4
2022-08-01T07:33:06.602Z,2.6
2022-08-01T07:34:22.837Z,2.6
2022-08-01T07:35:38.102Z,2.4
2022-08-01T07:36:54.329Z,2.5
2022-08-01T07:38:10.583Z,2.6
2022-08-01T07:39:26.807Z,2.3
2022-08-01T07:40:43.043Z,2.2
2022-08-01T07:41:59.283Z,2.4
2022-08-01T07:43:15.527Z,2.2
2022-08-01T07:44:31.762Z,2.1
2022-08-01T07:45:48.010Z,2.4
2022-08-01T07:47:04.244Z,2.4
2022-08-01T07:48:20.487Z,2.3
2022-08-01T07:49:36.738Z,2.2
2022-08-01T07:50:52.970Z,2.4
2022-08-01T07:52:08.235Z,2.1
2022-08-01T07:53:24.467Z,2
2022-08-01T07:54:40.710Z,2.2
2022-08-01T07:55:56.943Z,2.1
2022-08-01T07:57:13.182Z,1.7
2022-08-01T07:58:29.415Z,1.7
2022-08-01T07:59:45.656Z,1.6
2022-08-01T08:01:01.905Z,1.6
2022-08-01T08:02:18.149Z,1.2
2022-08-01T08:03:34.376Z,1.2
2022-08-01T08:04:50.620Z,1.2
2022-08-01T08:06:06.870Z,1.3
2022-08-01T08:07:23.110Z,1.3
2022-08-01T08:08:38.356Z,1.6
2022-08-01T08:09:54.601Z,1.5
2022-08-01T08:11:10.834Z,1.4
2022-08-01T08:12:27.086Z,1.5
2022-08-01T08:13:43.319Z,1.7
2022-08-01T08:14:59.556Z,1.4
2022-08-01T08:16:15.797Z,1.5
2022-08-01T08:17:32.044Z,1.4
2022-08-01T08:18:48.276Z,1.4
2022-08-01T08:20:04.527Z,1.5
2022-08-01T08:21:20.768Z,1.5
2022-08-01T08:22:36.993Z,1.5
2022-08-01T08:23:53.233Z,1.4
2022-08-01T08:25:08.488Z,1.5
2022-08-01T08:26:24.734Z,1.4
2022-08-01T08:27:40.968Z,1.5
2022-08-01T08:28:57.203Z,1.5
2022-08-01T08:30:13.460Z,1.4
2022-08-01T08:31:29.703Z,1.5
2022-08-01T08:32:45.924Z,1.5
2022-08-01T08:34:02.163Z,1.5
2022-08-01T08:35:18.404Z,1.5
2022-08-01T08:36:34.642Z,1.5
2022-08-01T08:37:50.900Z,1.5
2022-08-01T08:39:07.125Z,1.5
2022-08-01T08:40:23.370Z,1.3
2022-08-01T08:41:38.624Z,1.4
2022-08-01T08:42:54.859Z,1.5
2022-08-01T08:44:11.118Z,1.4
2022-08-01T08:45:27.339Z,1.3
2022-08-01T08:46:43.587Z,1.4
2022-08-01T08:47:59.837Z,1.4
2022-08-01T08:49:16.057Z,1.4
2022-08-01T08:50:32.297Z,1.4
2022-08-01T08:51:48.554Z,1.2
2022-08-01T08:53:04.780Z,1.1
2022-08-01T08:54:21.035Z,1.1
2022-08-01T08:55:37.257Z,1.2
2022-08-01T08:56:53.508Z,1
2022-08-01T08:58:08.765Z,1
2022-08-01T08:59:25.007Z,1
2022-08-01T09:00:41.251Z,1.1
2022-08-01T09:01:57.478Z,0.9
2022-08-01T09:03:13.717Z,0.9
2022-08-01T09:04:29.970Z,0.9
2022-08-01T09:05:46.204Z,1
2022-08-01T09:07:02.434Z,1
2022-08-01T09:08:18.688Z,1.1
2022-08-01T09:09:34.918Z,1
2022-08-01T09:10:51.162Z,1.3
2022-08-01T09:12:07.402Z,1.3
2022-08-01T09:13:23.638Z,1.1
2022-08-01T09:14:38.901Z,1.2
2022-08-01T09:15:55.134Z,1.3
2022-08-01T09:17:11.368Z,1.2
2022-08-01T09:18:27.612Z,1.2
2022-08-01T09:19:43.859Z,1.1
2022-08-01T09:21:00.099Z,1.3
2022-08-01T09:22:16.335Z,1.2
2022-08-01T09:23:32.578Z,1.3
2022-08-01T09:24:48.813Z,1.4
2022-08-01T09:26:05.052Z,1.3
2022-08-01T09:27:21.285Z,1.4
2022-08-01T09:28:37.537Z,1.4
2022-08-01T09:29:53.774Z,1.2
2022-08-01T09:31:09.038Z,1.3
2022-08-01T09:32:25.268Z,1.2
2022-08-01T09:33:41.509Z,1.3
2022-08-01T09:34:57.747Z,1.3
2022-08-01T09:36:13.982Z,1.2
2022-08-01T09:37:30.217Z,1.2
2022-08-01T09:38:46.458Z,1.2
2022-08-01T09:40:02.715Z,1.2
2022-08-01T09:41:18.948Z,1.3
2022-08-01T09:42:35.174Z,1.3
2022-08-01T09:43:51.425Z,1.3
2022-08-01T09:45:07.658Z,1.2
2022-08-01T09:46:23.902Z,1.2
2022-08-01T09:47:39.149Z,1.1
2022-08-01T09:48:55.392Z,1.1
2022-08-01T09:50:11.629Z,1.1
2022-08-01T09:51:27.871Z,1.3
2022-08-01T09:52:44.118Z,1.1
2022-08-01T09:54:00.353Z,1.1
2022-08-01T09:55:16.590Z,1.1
2022-08-01T09:56:32.834Z,1
2022-08-01T09:57:49.079Z,1.3
2022-08-01T09:59:05.325Z,1.4
2022-08-01T10:00:21.565Z,1.4
2022-08-01T10:01:37.799Z,1.3
2022-08-01T10:02:54.039Z,1.4
2022-08-01T10:04:09.295Z,1.3
2022-08-01T10:05:25.521Z,1.3
2022-08-01T10:06:41.773Z,1.1
2022-08-01T10:09:14.259Z,1.1
2022-08-01T10:10:30.481Z,1.3
2022-08-01T10:11:46.736Z,1.3
2022-08-01T10:13:02.963Z,1.3
2022-08-01T10:14:19.208Z,1.3
2022-08-01T10:15:35.447Z,1.2
2022-08-01T10:16:51.679Z,1.2
2022-08-01T10:18:07.926Z,1.2
2022-08-01T10:19:24.163Z,1.2
2022-08-01T10:20:39.432Z,1.3
2022-08-01T10:21:55.672Z,1.2
2022-08-01T10:24:28.139Z,1.2
2022-08-01T10:25:44.375Z,1.1
2022-08-01T10:27:00.629Z,1.1
2022-08-01T10:28:16.861Z,1.2
2022-08-01T10:29:33.099Z,1
2022-08-01T10:30:49.332Z,1.1
2022-08-01T10:32:05.572Z,1
2022-08-01T10:33:21.813Z,1
2022-08-01T10:34:38.055Z,1.1
2022-08-01T10:35:54.298Z,1.1
2022-08-01T10:37:09.551Z,1
2022-08-01T10:38:25.787Z,1
2022-08-01T10:39:42.034Z,1.1
2022-08-01T10:40:58.265Z,0.9
2022-08-01T10:42:14.519Z,1
2022-08-01T10:43:30.743Z,0.9
2022-08-01T10:44:46.983Z,1
2022-08-01T10:46:03.233Z,0.9
2022-08-01T11:19:24.882Z,1.8
2022-08-01T11:20:41.126Z,1.7
2022-08-01T11:21:57.348Z,1.8
2022-08-01T11:23:13.597Z,1.7
2022-08-01T11:24:29.844Z,1.8
2022-08-01T11:25:46.000Z,1.9
2022-08-01T11:27:02.321Z,2.2
2022-08-01T11:28:18.565Z,1.9
2022-08-01T11:29:34.801Z,1.9
2022-08-01T11:30:51.038Z,1.9
2022-08-01T11:32:07.280Z,1.9
2022-08-01T11:33:23.000Z,1.9
2022-08-01T11:34:39.749Z,1.8
2022-08-01T11:35:56.003Z,2.1
2022-08-01T11:37:12.237Z,1.9
2022-08-01T11:38:28.473Z,1.9
2022-08-01T11:39:44.727Z,2
2022-08-01T11:41:00.960Z,2.1
2022-08-01T11:42:17.190Z,2.1
2022-08-01T11:43:33.447Z,2.2
2022-08-01T11:44:48.691Z,2.1
2022-08-01T11:46:03.958Z,2.1
2022-08-01T11:47:20.186Z,2.1
2022-08-01T11:48:36.437Z,2
2022-08-01T11:49:52.681Z,2.1
2022-08-01T11:51:08.922Z,2.1
2022-08-01T11:52:25.149Z,2.2
2022-08-01T11:53:41.405Z,2.2
2022-08-01T11:54:57.625Z,2.2
2022-08-01T11:56:13.890Z,2.1
2022-08-01T11:57:30.116Z,2.1
2022-08-01T11:58:46.351Z,2.4
2022-08-01T12:00:02.593Z,2.1
2022-08-01T12:01:18.828Z,2.1
2022-08-01T12:02:34.100Z,2.2
2022-08-01T12:03:50.335Z,2.1
2022-08-01T12:05:06.562Z,2.2
2022-08-01T12:06:22.803Z,2.1
2022-08-01T12:07:39.048Z,2.4
2022-08-01T12:08:55.286Z,2.1
2022-08-01T12:10:11.541Z,2.3
2022-08-01T12:11:26.795Z,2.2
2022-08-01T12:12:42.041Z,2.1
2022-08-01T12:13:57.308Z,2.3
2022-08-01T12:15:12.575Z,2.2
2022-08-01T12:16:27.831Z,2.6
2022-08-01T12:17:43.092Z,2.6
2022-08-01T12:18:59.330Z,2.3
2022-08-01T12:20:15.561Z,2.7
2022-08-01T12:21:31.803Z,2.3
2022-08-01T12:22:48.052Z,2.3
2022-08-01T12:24:04.282Z,2.4
2022-08-01T12:25:20.521Z,2.4
2022-08-01T12:26:36.767Z,2.1
2022-08-01T12:27:53.012Z,2.1
2022-08-01T12:29:09.252Z,2
2022-08-01T12:31:41.732Z,2
2022-08-01T12:32:57.960Z,1.9
2022-08-01T12:34:13.224Z,1.9
2022-08-01T12:35:29.459Z,1.9
2022-08-01T12:36:45.695Z,2
2022-08-01T12:38:01.948Z,2
2022-08-01T12:39:18.182Z,2.3
2022-08-01T12:40:34.431Z,2.3
2022-08-01T12:41:50.668Z,2.4
2022-08-01T12:43:06.890Z,2.3
2022-08-01T12:44:22.165Z,2.4
2022-08-01T12:45:37.423Z,2.3
2022-08-01T12:46:52.686Z,2.4
2022-08-01T12:48:07.942Z,2.5
2022-08-01T12:49:24.168Z,2.6
2022-08-01T12:50:40.422Z,2.5
2022-08-01T12:51:56.666Z,2.5
2022-08-01T12:53:12.903Z,2.2
2022-08-01T12:54:29.126Z,2.3
2022-08-01T12:55:45.383Z,2.3
2022-08-01T12:57:01.625Z,2.5
2022-08-01T12:58:17.866Z,2.3
2022-08-01T12:59:34.105Z,2.1
2022-08-01T13:00:50.327Z,2.1
2022-08-01T13:02:06.578Z,2
2022-08-01T13:03:22.815Z,2.2
2022-08-01T13:04:38.078Z,2.2
2022-08-01T13:05:54.311Z,2.3
2022-08-01T13:07:10.558Z,1.8
2022-08-01T13:08:26.785Z,1.9
2022-08-01T13:09:43.039Z,1.8
2022-08-01T13:10:59.275Z,1.7
2022-08-01T13:12:15.508Z,1.8
2022-08-01T13:13:30.784Z,2
2022-08-01T13:14:46.028Z,1.8
2022-08-01T13:16:02.264Z,1.8
2022-08-01T13:17:18.502Z,1.7
2022-08-01T13:18:34.746Z,1.5
2022-08-01T13:19:50.998Z,1.8
2022-08-01T13:21:07.222Z,1.8
2022-08-01T13:22:23.478Z,1.7
2022-08-01T13:23:39.711Z,1.7
2022-08-01T13:24:55.951Z,1.7
2022-08-01T13:26:12.182Z,1.7
2022-08-01T13:27:28.422Z,1.7
2022-08-01T13:28:44.676Z,1.6
2022-08-01T13:30:00.918Z,1.7
2022-08-01T13:31:16.164Z,1.6
2022-08-01T13:32:32.000Z,1.7
2022-08-01T13:33:48.652Z,1.7
2022-08-01T13:35:04.893Z,1.7
2022-08-01T13:36:21.134Z,1.7
2022-08-01T13:37:37.374Z,1.6
2022-08-01T13:38:53.617Z,1.5
2022-08-01T13:40:08.864Z,1.6
2022-08-01T13:41:24.119Z,1.8
2022-08-01T13:42:39.389Z,1.7
2022-08-01T13:43:54.645Z,1.9
2022-08-01T13:45:09.896Z,1.8
2022-08-01T13:46:25.153Z,1.9
2022-08-01T13:47:41.406Z,1.8
2022-08-01T13:48:57.629Z,1.9
2022-08-01T13:50:13.879Z,2.1
2022-08-01T13:51:30.119Z,2
2022-08-01T13:52:46.363Z,2
2022-08-01T13:54:02.601Z,1.9
2022-08-01T13:55:18.845Z,2.1
2022-08-01T13:56:35.088Z,1.8
2022-08-01T13:57:51.326Z,1.9
2022-08-01T13:59:07.550Z,1.7
2022-08-01T14:00:23.793Z,1.5
2022-08-01T14:01:40.048Z,1.5
2022-08-01T14:02:55.293Z,1.6
2022-08-01T14:04:11.539Z,1.6
2022-08-01T14:05:27.769Z,1.8
2022-08-01T14:06:44.022Z,1.6
2022-08-01T14:08:00.264Z,1.8
2022-08-01T14:09:16.498Z,1.3
2022-08-01T14:10:32.735Z,1.4
2022-08-01T14:11:47.985Z,1.6
2022-08-01T14:13:03.255Z,1.7
2022-08-01T14:14:19.490Z,1.5
2022-08-01T14:15:35.724Z,1.6
2022-08-01T14:16:51.969Z,1.5
2022-08-01T14:18:08.205Z,1.6
2022-08-01T14:19:24.452Z,1.6
2022-08-01T14:20:40.701Z,1.5
2022-08-01T14:21:56.937Z,1.5
2022-08-01T14:23:13.169Z,1.5
2022-08-01T14:24:29.407Z,1.5
2022-08-01T14:25:45.658Z,1.5
2022-08-01T14:27:01.886Z,1.4
2022-08-01T14:28:18.141Z,1.5
2022-08-01T14:29:33.380Z,1.8
2022-08-01T14:30:49.619Z,1.5
2022-08-01T14:32:05.862Z,1.6
2022-08-01T14:33:22.114Z,1.5
2022-08-01T14:34:38.347Z,1.5
2022-08-01T14:35:54.589Z,1.4
2022-08-01T14:37:10.829Z,1.5
2022-08-01T14:38:26.095Z,1.5
2022-08-01T14:39:41.351Z,1.5
2022-08-01T14:40:57.579Z,1.5
2022-08-01T14:42:13.831Z,1.6
2022-08-01T14:43:30.063Z,1.6
2022-08-01T14:44:46.305Z,1.5
2022-08-01T14:46:02.545Z,1.7
2022-08-01T14:47:18.788Z,1.6
2022-08-01T14:48:35.033Z,1.5
2022-08-01T14:49:51.261Z,1.6
2022-08-01T14:51:07.494Z,1.7
2022-08-01T14:52:23.751Z,1.5
2022-08-01T14:53:39.989Z,1.4
2022-08-01T14:54:56.232Z,1.6
2022-08-01T14:56:11.489Z,1.6
2022-08-01T14:57:27.713Z,1.5
2022-08-01T14:58:43.956Z,1.4
2022-08-01T15:00:00.209Z,1.5
2022-08-01T15:01:16.436Z,1.7
2022-08-01T15:02:32.670Z,1.5
2022-08-01T15:03:48.912Z,1.6
2022-08-01T15:05:04.180Z,1.7
2022-08-01T15:06:19.434Z,1.5
2022-08-01T15:07:34.701Z,1.5
2022-08-01T15:08:49.965Z,1.6
2022-08-01T15:10:06.202Z,1.5
2022-08-01T15:11:22.427Z,1.4
2022-08-01T15:12:38.667Z,1.4
2022-08-01T15:13:54.914Z,1.3
2022-08-01T15:15:11.146Z,1.3
2022-08-01T15:16:27.385Z,1.3
2022-08-01T15:17:43.625Z,1.4
2022-08-01T15:18:59.882Z,1.3
2022-08-01T15:20:16.122Z,1.2
2022-08-01T15:21:32.345Z,1.2
2022-08-01T15:22:48.586Z,1.3
2022-08-01T15:24:04.843Z,1.2
2022-08-01T15:25:20.100Z,1.3
2022-08-01T15:26:36.341Z,1.4
2022-08-01T15:27:52.581Z,1.4
2022-08-01T15:29:08.816Z,1.4
2022-08-01T15:30:25.056Z,1.4
2022-08-01T15:31:41.291Z,1.4
2022-08-01T15:32:57.529Z,1.5
2022-08-01T15:34:12.795Z,1.2
2022-08-01T15:35:28.050Z,1.3
2022-08-01T15:36:43.312Z,1.4
2022-08-01T15:37:58.568Z,1.3
2022-08-01T15:39:13.839Z,1.4
2022-08-01T15:40:29.105Z,1.4
2022-08-01T15:41:44.362Z,1.4
2022-08-01T15:42:59.618Z,1.4
2022-08-01T15:44:15.856Z,1.7
2022-08-01T15:45:32.087Z,1.5
2022-08-01T15:46:48.338Z,1.7
2022-08-01T15:48:04.581Z,1.6
2022-08-01T15:49:20.804Z,1.7
2022-08-01T15:50:37.049Z,1.8
2022-08-01T15:51:53.290Z,2
2022-08-01T15:53:09.532Z,1.8
2022-08-01T15:54:25.765Z,1.9
2022-08-01T15:55:42.004Z,1.8
2022-08-01T15:56:58.260Z,1.8
2022-08-01T15:58:14.488Z,1.8
2022-08-01T15:59:29.750Z,1.9
2022-08-01T16:00:45.990Z,1.8
2022-08-01T16:02:02.219Z,2
2022-08-01T16:03:18.479Z,2
2022-08-01T16:04:34.714Z,1.9
2022-08-01T16:05:50.957Z,2
2022-08-01T16:07:07.197Z,2
2022-08-01T16:08:22.000Z,2.1
2022-08-01T16:09:37.709Z,2.1
2022-08-01T16:10:52.959Z,2.2
2022-08-01T16:12:08.215Z,2.1
2022-08-01T16:13:23.484Z,2.2
2022-08-01T16:14:38.742Z,2.3
2022-08-01T16:15:54.984Z,2.3
2022-08-01T16:17:11.226Z,2.2
2022-08-01T16:18:27.467Z,2.2
2022-08-01T16:19:43.693Z,2.1
2022-08-01T16:20:59.945Z,2.1
2022-08-01T16:22:16.176Z,2.1
2022-08-01T16:23:32.429Z,2
2022-08-01T16:24:48.669Z,2.2
2022-08-01T16:26:04.898Z,2.1
2022-08-01T16:27:21.151Z,2.2
2022-08-01T16:28:37.389Z,2.1
2022-08-01T16:29:53.626Z,1.8
2022-08-01T16:31:08.883Z,2
2022-08-01T16:32:25.119Z,2
2022-08-01T16:33:41.362Z,2.1
2022-08-01T16:34:57.597Z,1.9
2022-08-01T16:36:13.832Z,1.8
2022-08-01T16:37:30.079Z,1.7
2022-08-01T16:38:46.308Z,1.6
2022-08-01T16:40:01.571Z,1.7
2022-08-01T16:41:16.828Z,1.7
2022-08-01T16:43:49.305Z,1.8
2022-08-01T16:45:04.579Z,1.7
2022-08-01T16:46:19.818Z,1.7
2022-08-01T16:47:36.060Z,1.8
2022-08-01T16:48:52.307Z,1.6
2022-08-01T16:50:08.537Z,1.8
2022-08-01T16:51:24.777Z,1.8
2022-08-01T16:52:41.023Z,1.6
2022-08-01T16:53:57.262Z,1.7
2022-08-01T16:55:13.516Z,1.5
2022-08-01T16:56:29.753Z,1.6
2022-08-01T16:57:45.976Z,1.6
2022-08-01T16:59:02.231Z,1.5
2022-08-01T17:00:18.468Z,1.4
2022-08-01T17:01:34.703Z,1.5
2022-08-01T17:02:49.960Z,1.5
2022-08-01T17:04:06.198Z,1.5
2022-08-01T17:05:22.438Z,1.4
2022-08-01T17:06:38.676Z,1.5
2022-08-01T17:07:54.929Z,1.5
2022-08-01T17:09:11.159Z,1.3
2022-08-01T17:10:27.402Z,1.4
2022-08-01T17:11:42.659Z,1.4
2022-08-01T17:12:57.912Z,1.4
2022-08-01T17:14:14.156Z,1.3
2022-08-01T17:15:30.391Z,1.3
2022-08-01T17:16:46.646Z,1.4
2022-08-01T17:18:02.880Z,1.5
2022-08-01T17:19:19.126Z,1.3
2022-08-01T17:20:35.367Z,1.4
2022-08-01T17:21:51.607Z,1.4
2022-08-01T17:23:07.838Z,1.4
2022-08-01T17:24:24.075Z,1.4
2022-08-01T17:25:40.312Z,1.3
2022-08-01T17:26:56.562Z,1.4
2022-08-01T17:28:12.801Z,1.3
2022-08-01T17:29:28.052Z,1.4
2022-08-01T17:30:44.299Z,1.3
2022-08-01T17:32:00.541Z,1.4
2022-08-01T17:33:16.771Z,1.4
2022-08-01T17:34:33.010Z,1.4
2022-08-01T17:35:49.265Z,1.4
2022-08-01T17:37:05.490Z,1.5
2022-08-01T17:38:20.754Z,1.3
2022-08-01T17:39:36.015Z,1.4
2022-08-01T17:40:52.263Z,1.3
2022-08-01T17:42:08.488Z,1.4
2022-08-01T17:43:24.731Z,1.4
2022-08-01T17:44:40.970Z,1.4
2022-08-01T17:45:57.208Z,1.5
2022-08-01T17:47:13.448Z,1.4
2022-08-01T17:48:29.701Z,1.3
2022-08-01T17:49:45.935Z,1.4
2022-08-01T17:51:02.174Z,1.4
2022-08-01T17:52:18.410Z,1.5
2022-08-01T17:53:34.657Z,1.4
2022-08-01T17:54:50.890Z,1.5
2022-08-01T17:56:06.160Z,1.5
2022-08-01T17:57:22.384Z,1.5
2022-08-01T17:58:38.628Z,1.6
2022-08-01T17:59:54.879Z,1.5
2022-08-01T18:01:11.115Z,1.4
2022-08-01T18:02:27.344Z,1.4
2022-08-01T18:03:43.598Z,1.4
2022-08-01T18:04:58.845Z,1.5
2022-08-01T18:06:14.116Z,1.4
2022-08-01T18:07:29.376Z,1.4
2022-08-01T18:08:44.635Z,1.3
2022-08-01T18:09:59.896Z,1.5
2022-08-01T18:11:15.137Z,1.6
2022-08-01T18:12:31.389Z,1.6
2022-08-01T18:13:47.615Z,1.5